createdAt,value
2023-11-14T00:00:13.577Z,82.68
2023-11-14T00:01:16.338Z,82.69
2023-11-14T00:02:19.153Z,82.78
2023-11-14T00:03:22.479Z,82.77
2023-11-14T00:04:25.535Z,82.71
2023-11-14T00:05:28.400Z,82.76
2023-11-14T00:06:31.175Z,82.84
2023-11-14T00:07:34.010Z,82.86
2023-11-14T00:08:36.709Z,82.82
2023-11-14T00:09:39.486Z,82.75
2023-11-14T00:10:42.376Z,82.92
2023-11-14T00:11:45.192Z,82.84
2023-11-14T00:12:47.963Z,82.86
2023-11-14T00:13:50.795Z,82.94
2023-11-14T00:14:54.265Z,82.96
2023-11-14T00:15:57.068Z,83.03
2023-11-14T00:17:00.054Z,82.98
2023-11-14T00:18:02.967Z,82.88
2023-11-14T00:19:06.148Z,82.93
2023-11-14T00:20:09.437Z,82.88
2023-11-14T00:21:13.017Z,82.89
2023-11-14T00:22:15.815Z,83.06
2023-11-14T00:23:21.539Z,83.14
2023-11-14T00:24:24.263Z,83.20
2023-11-14T00:25:31.320Z,83.24
2023-11-14T00:26:34.199Z,83.26
2023-11-14T00:27:36.965Z,83.32
2023-11-14T00:28:39.768Z,83.38
2023-11-14T00:29:42.965Z,83.27
2023-11-14T00:30:45.768Z,83.24
2023-11-14T00:31:49.045Z,83.25
2023-11-14T00:32:51.949Z,83.34
2023-11-14T00:33:54.781Z,83.47
2023-11-14T00:34:57.535Z,83.50
2023-11-14T00:36:00.988Z,83.63
2023-11-14T00:37:03.902Z,83.63
2023-11-14T00:38:06.835Z,83.71
2023-11-14T00:39:10.294Z,83.75
2023-11-14T00:40:13.435Z,83.86
2023-11-14T00:41:16.138Z,83.78
2023-11-14T00:42:18.956Z,83.85
2023-11-14T00:43:21.729Z,83.86
2023-11-14T00:44:25.433Z,83.86
2023-11-14T00:45:29.444Z,83.91
2023-11-14T00:46:32.369Z,83.92
2023-11-14T00:47:36.580Z,83.83
2023-11-14T00:48:40.299Z,83.81
2023-11-14T00:49:42.968Z,83.82
2023-11-14T00:50:45.734Z,83.98
2023-11-14T00:51:48.488Z,83.98
2023-11-14T00:52:52.085Z,83.94
2023-11-14T00:53:57.371Z,83.99
2023-11-14T00:55:00.117Z,83.98
2023-11-14T00:56:02.924Z,84.00
2023-11-14T00:57:05.873Z,83.91
2023-11-14T00:58:08.651Z,83.98
2023-11-14T00:59:11.517Z,83.98
2023-11-14T01:00:14.927Z,83.99
2023-11-14T01:01:20.837Z,83.95
2023-11-14T01:02:24.398Z,83.93
2023-11-14T01:03:28.005Z,83.96
2023-11-14T01:04:31.407Z,83.87
2023-11-14T01:05:34.105Z,83.94
2023-11-14T01:06:37.020Z,84.08
2023-11-14T01:07:40.986Z,84.10
2023-11-14T01:08:44.449Z,83.93
2023-11-14T01:09:47.183Z,83.87
2023-11-14T01:10:49.862Z,83.88
2023-11-14T01:11:52.637Z,83.93
2023-11-14T01:13:00.442Z,83.98
2023-11-14T01:14:06.649Z,84.06
2023-11-14T01:15:09.916Z,83.92
2023-11-14T01:16:14.252Z,83.89
2023-11-14T01:17:17.147Z,83.91
2023-11-14T01:18:22.818Z,84.05
2023-11-14T01:19:25.598Z,84.05
2023-11-14T01:20:28.356Z,84.02
2023-11-14T01:21:32.479Z,84.04
2023-11-14T01:22:35.325Z,84.02
2023-11-14T01:23:38.212Z,84.03
2023-11-14T01:24:41.033Z,84.08
2023-11-14T01:25:47.003Z,84.12
2023-11-14T01:26:49.834Z,84.18
2023-11-14T01:27:52.556Z,84.23
2023-11-14T01:28:55.408Z,84.16
2023-11-14T01:29:58.078Z,84.21
2023-11-14T01:31:00.850Z,84.19
2023-11-14T01:32:03.669Z,84.01
2023-11-14T01:33:06.840Z,84.00
2023-11-14T01:34:09.727Z,84.14
2023-11-14T01:35:12.552Z,84.07
2023-11-14T01:36:15.318Z,83.98
2023-11-14T01:37:18.421Z,84.02
2023-11-14T01:38:23.960Z,84.03
2023-11-14T01:39:26.681Z,83.98
2023-11-14T01:40:29.421Z,83.84
2023-11-14T01:41:32.218Z,83.89
2023-11-14T01:42:34.991Z,83.87
2023-11-14T01:43:47.527Z,83.85
2023-11-14T01:44:50.244Z,83.91
2023-11-14T01:45:53.151Z,83.87
2023-11-14T01:46:56.094Z,83.68
2023-11-14T01:47:59.542Z,83.71
2023-11-14T01:49:02.265Z,83.77
2023-11-14T01:50:06.996Z,83.85
2023-11-14T01:51:10.710Z,84.01
2023-11-14T01:52:15.771Z,83.99
2023-11-14T01:53:18.631Z,83.98
2023-11-14T01:54:21.575Z,83.97
2023-11-14T01:55:27.162Z,84.01
2023-11-14T01:56:30.391Z,83.98
2023-11-14T01:57:34.790Z,84.04
2023-11-14T01:58:40.899Z,84.11
2023-11-14T01:59:48.334Z,84.13
2023-11-14T02:00:51.917Z,84.17
2023-11-14T02:01:54.797Z,84.23
2023-11-14T02:02:58.594Z,84.09
2023-11-14T02:04:05.269Z,84.13
2023-11-14T02:05:08.486Z,84.06
2023-11-14T02:06:11.380Z,84.17
2023-11-14T02:07:14.288Z,84.22
2023-11-14T02:08:17.805Z,84.19
2023-11-14T02:09:22.201Z,84.25
2023-11-14T02:10:25.058Z,84.34
2023-11-14T02:11:27.763Z,84.33
2023-11-14T02:12:30.492Z,84.40
2023-11-14T02:13:34.883Z,84.44
2023-11-14T02:14:37.712Z,84.49
2023-11-14T02:15:40.578Z,84.55
2023-11-14T02:16:51.577Z,84.59
2023-11-14T02:17:56.256Z,84.58
2023-11-14T02:18:59.093Z,84.67
2023-11-14T02:20:01.839Z,84.64
2023-11-14T02:21:04.781Z,84.69
2023-11-14T02:22:07.541Z,84.73
2023-11-14T02:23:12.636Z,84.71
2023-11-14T02:24:19.370Z,84.80
2023-11-14T02:25:22.173Z,84.85
2023-11-14T02:26:24.968Z,84.80
2023-11-14T02:27:27.871Z,84.87
2023-11-14T02:28:30.681Z,84.86
2023-11-14T02:29:35.626Z,84.77
2023-11-14T02:30:39.143Z,84.85
2023-11-14T02:31:42.530Z,84.85
2023-11-14T02:32:45.299Z,84.84
2023-11-14T02:33:48.062Z,84.88
2023-11-14T02:34:53.960Z,84.84
2023-11-14T02:35:56.779Z,84.97
2023-11-14T02:36:59.477Z,84.96
2023-11-14T02:38:02.771Z,84.95
2023-11-14T02:39:05.957Z,85.04
2023-11-14T02:40:10.076Z,85.03
2023-11-14T02:41:16.252Z,84.97
2023-11-14T02:42:20.124Z,85.59
2023-11-14T02:43:23.030Z,85.68
2023-11-14T02:44:27.876Z,85.60
2023-11-14T02:45:30.794Z,85.61
2023-11-14T02:46:33.930Z,85.61
2023-11-14T02:47:36.953Z,85.66
2023-11-14T02:48:39.890Z,85.65
2023-11-14T02:50:18.714Z,85.62
2023-11-14T02:51:23.938Z,85.55
2023-11-14T02:52:26.783Z,85.60
2023-11-14T02:53:29.778Z,85.53
2023-11-14T02:54:32.647Z,85.64
2023-11-14T02:55:35.531Z,85.66
2023-11-14T02:56:38.338Z,85.66
2023-11-14T02:57:41.086Z,85.62
2023-11-14T02:58:43.838Z,85.49
2023-11-14T02:59:49.381Z,85.36
2023-11-14T03:00:53.028Z,85.23
2023-11-14T03:01:56.154Z,85.16
2023-11-14T03:02:58.948Z,85.21
2023-11-14T03:04:02.050Z,85.14
2023-11-14T03:05:05.073Z,85.22
2023-11-14T03:06:08.583Z,85.20
2023-11-14T03:07:11.358Z,85.10
2023-11-14T03:08:14.535Z,85.11
2023-11-14T03:09:18.148Z,84.98
2023-11-14T03:10:21.377Z,84.97
2023-11-14T03:11:24.072Z,84.87
2023-11-14T03:12:26.795Z,84.78
2023-11-14T03:13:29.483Z,84.74
2023-11-14T03:14:32.233Z,84.67
2023-11-14T03:15:34.993Z,84.64
2023-11-14T03:16:38.210Z,84.62
2023-11-14T03:17:41.247Z,84.59
2023-11-14T03:18:43.927Z,84.66
2023-11-14T03:19:46.812Z,84.62
2023-11-14T03:20:49.530Z,84.53
2023-11-14T03:21:52.493Z,84.56
2023-11-14T03:22:56.716Z,84.52
2023-11-14T03:23:59.475Z,84.43
2023-11-14T03:25:02.712Z,84.41
2023-11-14T03:26:05.599Z,84.37
2023-11-14T03:27:11.636Z,84.37
2023-11-14T03:28:14.578Z,84.27
2023-11-14T03:29:17.276Z,84.24
2023-11-14T03:30:20.435Z,84.21
2023-11-14T03:31:24.074Z,84.16
2023-11-14T03:32:26.994Z,84.15
2023-11-14T03:33:29.755Z,84.13
2023-11-14T03:34:32.517Z,84.07
2023-11-14T03:35:35.254Z,84.10
2023-11-14T03:36:38.117Z,84.18
2023-11-14T03:37:40.982Z,84.22
2023-11-14T03:38:43.733Z,84.05
2023-11-14T03:39:46.457Z,83.97
2023-11-14T03:40:49.215Z,84.02
2023-11-14T03:41:51.997Z,84.14
2023-11-14T03:42:54.721Z,84.18
2023-11-14T03:43:57.569Z,84.23
2023-11-14T03:45:00.872Z,84.22
2023-11-14T03:46:06.285Z,84.03
2023-11-14T03:47:09.064Z,84.01
2023-11-14T03:48:11.856Z,83.95
2023-11-14T03:49:14.694Z,84.03
2023-11-14T03:50:17.603Z,83.83
2023-11-14T03:51:21.506Z,83.78
2023-11-14T03:52:26.952Z,83.75
2023-11-14T03:53:30.237Z,83.71
2023-11-14T03:54:33.428Z,83.61
2023-11-14T03:55:36.976Z,83.74
2023-11-14T03:56:39.741Z,83.69
2023-11-14T03:57:42.432Z,83.66
2023-11-14T03:58:45.188Z,83.91
2023-11-14T03:59:48.077Z,83.91
2023-11-14T04:00:50.880Z,83.79
2023-11-14T04:01:53.793Z,83.83
2023-11-14T04:02:56.625Z,83.93
2023-11-14T04:03:59.594Z,83.96
2023-11-14T04:05:02.432Z,84.00
2023-11-14T04:06:05.463Z,84.04
2023-11-14T04:07:08.162Z,84.04
2023-11-14T04:08:10.926Z,84.13
2023-11-14T04:09:14.032Z,84.15
2023-11-14T04:10:16.990Z,84.30
2023-11-14T04:11:19.995Z,84.32
2023-11-14T04:12:25.863Z,84.25
2023-11-14T04:13:28.695Z,84.23
2023-11-14T04:14:31.618Z,84.23
2023-11-14T04:15:34.343Z,84.21
2023-11-14T04:16:37.034Z,84.18
2023-11-14T04:17:39.836Z,84.25
2023-11-14T04:18:43.472Z,84.28
2023-11-14T04:19:46.361Z,84.34
2023-11-14T04:20:49.103Z,84.35
2023-11-14T04:21:51.834Z,84.33
2023-11-14T04:22:54.703Z,84.25
2023-11-14T04:23:57.421Z,84.31
2023-11-14T04:25:00.692Z,84.23
2023-11-14T04:26:03.892Z,84.21
2023-11-14T04:27:06.690Z,84.21
2023-11-14T04:28:09.782Z,84.16
2023-11-14T04:29:15.088Z,84.16
2023-11-14T04:30:17.937Z,84.10
2023-11-14T04:31:20.718Z,84.07
2023-11-14T04:32:23.610Z,84.17
2023-11-14T04:33:26.421Z,84.10
2023-11-14T04:34:29.210Z,84.11
2023-11-14T04:35:31.952Z,84.05
2023-11-14T04:36:35.621Z,83.88
2023-11-14T04:37:38.554Z,83.88
2023-11-14T04:38:41.308Z,83.96
2023-11-14T04:39:44.077Z,84.05
2023-11-14T04:40:46.887Z,83.90
2023-11-14T04:41:49.662Z,83.99
2023-11-14T04:42:53.269Z,83.90
2023-11-14T04:43:55.999Z,83.99
2023-11-14T04:44:58.708Z,84.00
2023-11-14T04:46:01.473Z,83.89
2023-11-14T04:47:04.693Z,83.77
2023-11-14T04:48:07.757Z,83.81
2023-11-14T04:49:10.743Z,83.84
2023-11-14T04:50:15.966Z,83.83
2023-11-14T04:51:19.135Z,83.92
2023-11-14T04:52:22.361Z,83.91
2023-11-14T04:53:25.123Z,83.99
2023-11-14T04:54:27.870Z,84.04
2023-11-14T04:55:31.116Z,84.05
2023-11-14T04:56:35.598Z,84.02
2023-11-14T04:57:38.460Z,84.04
2023-11-14T04:58:43.248Z,84.01
2023-11-14T04:59:46.127Z,84.02
2023-11-14T05:00:50.589Z,84.02
2023-11-14T05:01:53.451Z,84.11
2023-11-14T05:02:56.490Z,84.10
2023-11-14T05:03:59.406Z,84.19
2023-11-14T05:05:02.244Z,84.08
2023-11-14T05:06:06.112Z,84.07
2023-11-14T05:07:08.950Z,84.11
2023-11-14T05:08:11.725Z,84.16
2023-11-14T05:09:14.747Z,84.18
2023-11-14T05:10:20.384Z,84.22
2023-11-14T05:11:23.517Z,84.18
2023-11-14T05:12:26.480Z,84.18
2023-11-14T05:13:30.147Z,84.21
2023-11-14T05:14:32.835Z,84.19
2023-11-14T05:15:35.588Z,84.15
2023-11-14T05:16:42.469Z,84.13
2023-11-14T05:17:46.035Z,84.07
2023-11-14T05:18:48.877Z,83.83
2023-11-14T05:19:52.374Z,83.79
2023-11-14T05:20:55.159Z,83.92
2023-11-14T05:21:57.905Z,83.61
2023-11-14T05:23:00.766Z,83.51
2023-11-14T05:24:03.577Z,83.31
2023-11-14T05:25:12.505Z,83.13
2023-11-14T05:26:15.267Z,83.09
2023-11-14T05:27:18.014Z,83.11
2023-11-14T05:28:20.755Z,83.17
2023-11-14T05:29:23.597Z,83.05
2023-11-14T05:30:26.352Z,83.10
2023-11-14T05:31:29.104Z,82.98
2023-11-14T05:32:31.868Z,83.04
2023-11-14T05:33:34.687Z,83.08
2023-11-14T05:34:37.490Z,83.10
2023-11-14T05:35:40.792Z,83.20
2023-11-14T05:36:43.997Z,83.09
2023-11-14T05:37:47.004Z,82.94
2023-11-14T05:38:50.028Z,82.96
2023-11-14T05:39:52.723Z,82.94
2023-11-14T05:40:56.806Z,82.79
2023-11-14T05:41:59.640Z,82.63
2023-11-14T05:43:04.090Z,82.44
2023-11-14T05:44:06.997Z,82.40
2023-11-14T05:45:10.422Z,82.44
2023-11-14T05:46:13.208Z,82.53
2023-11-14T05:47:16.684Z,82.57
2023-11-14T05:48:22.744Z,82.69
2023-11-14T05:49:25.534Z,82.81
2023-11-14T05:50:28.253Z,82.80
2023-11-14T05:51:32.322Z,82.75
2023-11-14T05:52:35.501Z,82.73
2023-11-14T05:53:38.288Z,82.67
2023-11-14T05:54:41.047Z,82.53
2023-11-14T05:55:43.876Z,82.49
2023-11-14T05:56:46.772Z,82.29
2023-11-14T05:57:49.509Z,82.24
2023-11-14T05:58:52.283Z,82.36
2023-11-14T05:59:57.011Z,82.50
2023-11-14T06:00:59.787Z,82.53
2023-11-14T06:02:02.675Z,82.67
2023-11-14T06:03:05.728Z,82.61
2023-11-14T06:04:08.911Z,82.54
2023-11-14T06:05:11.840Z,82.47
2023-11-14T06:06:14.644Z,82.43
2023-11-14T06:07:17.659Z,82.57
2023-11-14T06:08:23.701Z,82.52
2023-11-14T06:09:26.862Z,82.65
2023-11-14T06:10:29.802Z,82.69
2023-11-14T06:11:32.844Z,82.68
2023-11-14T06:12:35.811Z,82.63
2023-11-14T06:13:38.602Z,82.61
2023-11-14T06:14:41.421Z,82.51
2023-11-14T06:15:44.170Z,82.33
2023-11-14T06:16:47.754Z,82.26
2023-11-14T06:17:50.536Z,82.30
2023-11-14T06:18:53.344Z,82.28
2023-11-14T06:19:56.167Z,82.27
2023-11-14T06:21:02.088Z,82.25
2023-11-14T06:22:06.053Z,82.25
2023-11-14T06:23:08.888Z,82.22
2023-11-14T06:24:11.634Z,82.18
2023-11-14T06:25:14.387Z,82.29
2023-11-14T06:26:17.147Z,82.18
2023-11-14T06:27:19.926Z,82.24
2023-11-14T06:28:22.606Z,82.21
2023-11-14T06:29:26.038Z,82.22
2023-11-14T06:30:33.690Z,82.17
2023-11-14T06:31:36.466Z,82.23
2023-11-14T06:32:39.403Z,82.11
2023-11-14T06:33:42.186Z,82.19
2023-11-14T06:34:44.906Z,82.24
2023-11-14T06:35:48.881Z,82.27
2023-11-14T06:36:51.712Z,82.24
2023-11-14T06:37:54.703Z,82.15
2023-11-14T06:38:57.449Z,82.24
2023-11-14T06:40:00.285Z,82.22
2023-11-14T06:41:03.030Z,82.21
2023-11-14T06:42:08.846Z,82.26
2023-11-14T06:43:11.514Z,82.12
2023-11-14T06:44:14.365Z,81.97
2023-11-14T06:45:17.140Z,82.10
2023-11-14T06:46:19.879Z,82.00
2023-11-14T06:47:22.654Z,81.99
2023-11-14T06:48:25.477Z,81.96
2023-11-14T06:49:28.234Z,81.86
2023-11-14T06:50:41.032Z,81.77
2023-11-14T06:51:46.899Z,81.75
2023-11-14T06:52:49.757Z,81.66
2023-11-14T06:53:52.548Z,81.65
2023-11-14T06:54:55.988Z,81.63
2023-11-14T06:56:00.136Z,81.64
2023-11-14T06:57:03.013Z,81.59
2023-11-14T06:58:06.267Z,81.64
2023-11-14T06:59:09.145Z,81.63
2023-11-14T07:00:12.516Z,81.60
2023-11-14T07:01:15.311Z,81.56
2023-11-14T07:02:18.433Z,81.58
2023-11-14T07:03:21.339Z,81.53
2023-11-14T07:04:24.288Z,81.50
2023-11-14T07:05:27.184Z,81.49
2023-11-14T07:06:30.957Z,81.34
2023-11-14T07:07:33.797Z,81.36
2023-11-14T07:08:36.641Z,81.29
2023-11-14T07:09:39.390Z,81.35
2023-11-14T07:10:42.159Z,81.42
2023-11-14T07:11:45.850Z,81.39
2023-11-14T07:12:48.582Z,81.37
2023-11-14T07:13:52.387Z,81.53
2023-11-14T07:14:55.101Z,81.34
2023-11-14T07:15:57.943Z,81.36
2023-11-14T07:17:00.851Z,81.43
2023-11-14T07:18:03.965Z,81.31
2023-11-14T07:19:07.967Z,81.35
2023-11-14T07:20:12.085Z,81.11
2023-11-14T07:21:15.298Z,81.09
2023-11-14T07:22:18.448Z,81.05
2023-11-14T07:23:22.189Z,81.03
2023-11-14T07:24:26.452Z,81.19
2023-11-14T07:25:30.330Z,81.08
2023-11-14T07:26:33.233Z,81.08
2023-11-14T07:27:36.490Z,81.02
2023-11-14T07:28:39.384Z,81.11
2023-11-14T07:29:42.964Z,81.02
2023-11-14T07:30:49.259Z,80.86
2023-11-14T07:31:53.885Z,80.85
2023-11-14T07:32:57.519Z,80.81
2023-11-14T07:34:00.261Z,80.76
2023-11-14T07:35:03.955Z,80.69
2023-11-14T07:36:07.391Z,80.63
2023-11-14T07:37:10.443Z,80.33
2023-11-14T07:38:13.245Z,80.47
2023-11-14T07:39:17.913Z,80.57
2023-11-14T07:40:23.589Z,80.48
2023-11-14T07:41:26.851Z,80.13
2023-11-14T07:42:32.048Z,80.24
2023-11-14T07:43:34.852Z,80.09
2023-11-14T07:44:37.767Z,80.18
2023-11-14T07:45:41.985Z,80.28
2023-11-14T07:46:46.034Z,80.36
2023-11-14T07:47:49.490Z,80.11
2023-11-14T07:48:52.486Z,80.17
2023-11-14T07:49:56.128Z,80.18
2023-11-14T07:50:59.135Z,79.99
2023-11-14T07:52:01.866Z,80.07
2023-11-14T07:53:05.683Z,80.24
2023-11-14T07:54:08.534Z,80.25
2023-11-14T07:55:12.585Z,80.24
2023-11-14T07:56:15.950Z,80.03
2023-11-14T07:57:18.926Z,79.97
2023-11-14T07:58:21.708Z,79.95
2023-11-14T07:59:24.482Z,79.71
2023-11-14T08:00:27.929Z,79.83
2023-11-14T08:01:31.076Z,79.73
2023-11-14T08:02:34.273Z,79.53
2023-11-14T08:03:37.898Z,79.57
2023-11-14T08:04:41.961Z,79.69
2023-11-14T08:05:44.726Z,79.82
2023-11-14T08:06:47.448Z,79.91
2023-11-14T08:07:50.180Z,79.73
2023-11-14T08:08:57.587Z,79.58
2023-11-14T08:10:00.364Z,79.61
2023-11-14T08:11:03.599Z,79.40
2023-11-14T08:12:08.281Z,79.53
2023-11-14T08:13:11.122Z,79.68
2023-11-14T08:14:13.896Z,79.44
2023-11-14T08:15:17.671Z,79.36
2023-11-14T08:16:20.422Z,79.21
2023-11-14T08:17:23.286Z,79.27
2023-11-14T08:18:26.266Z,79.28
2023-11-14T08:19:29.084Z,79.23
2023-11-14T08:20:31.971Z,79.15
2023-11-14T08:21:36.170Z,79.14
2023-11-14T08:22:38.903Z,79.25
2023-11-14T08:23:44.932Z,79.21
2023-11-14T08:24:47.647Z,79.19
2023-11-14T08:25:51.984Z,79.31
2023-11-14T08:26:54.799Z,79.25
2023-11-14T08:27:57.676Z,78.81
2023-11-14T08:29:00.463Z,78.76
2023-11-14T08:30:07.350Z,78.87
2023-11-14T08:31:10.430Z,78.94
2023-11-14T08:32:17.035Z,78.94
2023-11-14T08:33:20.193Z,78.93
2023-11-14T08:34:23.530Z,78.93
2023-11-14T08:35:26.546Z,79.13
2023-11-14T08:36:29.359Z,79.17
2023-11-14T08:37:33.049Z,79.17
2023-11-14T08:38:38.851Z,78.94
2023-11-14T08:39:42.017Z,78.11
2023-11-14T08:40:44.853Z,78.61
2023-11-14T08:41:47.892Z,77.80
2023-11-14T08:42:52.917Z,77.96
2023-11-14T08:43:55.715Z,77.08
2023-11-14T08:44:59.270Z,76.23
2023-11-14T08:46:02.255Z,76.19
2023-11-14T08:47:05.556Z,76.40
2023-11-14T08:48:09.649Z,75.95
2023-11-14T08:49:12.949Z,75.67
2023-11-14T08:50:17.988Z,75.84
2023-11-14T08:51:24.043Z,76.06
2023-11-14T08:52:27.403Z,76.01
2023-11-14T08:53:30.203Z,75.74
2023-11-14T08:54:34.102Z,75.88
2023-11-14T08:55:37.111Z,75.89
2023-11-14T08:56:40.171Z,75.97
2023-11-14T08:57:45.056Z,76.00
2023-11-14T08:58:50.333Z,75.37
2023-11-14T08:59:55.023Z,75.12
2023-11-14T09:00:59.881Z,75.43
2023-11-14T09:02:04.362Z,75.03
2023-11-14T09:03:07.363Z,74.86
2023-11-14T09:04:13.795Z,74.59
2023-11-14T09:05:16.737Z,74.32
2023-11-14T09:06:19.604Z,74.39
2023-11-14T09:07:22.428Z,74.44
2023-11-14T09:08:27.907Z,74.47
2023-11-14T09:09:30.704Z,74.48
2023-11-14T09:10:33.471Z,74.71
2023-11-14T09:11:38.398Z,73.28
2023-11-14T09:12:41.384Z,72.95
2023-11-14T09:13:45.619Z,72.40
2023-11-14T09:14:48.407Z,71.63
2023-11-14T09:15:51.180Z,71.41
2023-11-14T09:16:54.975Z,71.08
2023-11-14T09:17:58.681Z,71.04
2023-11-14T09:19:03.412Z,70.50
2023-11-14T09:20:06.911Z,70.60
2023-11-14T09:21:11.464Z,70.62
2023-11-14T09:22:14.283Z,70.63
2023-11-14T09:23:17.083Z,70.64
2023-11-14T09:24:20.024Z,70.60
2023-11-14T09:25:22.739Z,70.00
2023-11-14T09:26:25.758Z,69.14
2023-11-14T09:27:28.533Z,68.73
2023-11-14T09:28:32.148Z,68.18
2023-11-14T09:29:35.160Z,68.24
2023-11-14T09:30:38.174Z,68.04
2023-11-14T09:31:40.952Z,67.90
2023-11-14T09:32:43.744Z,67.73
2023-11-14T09:33:47.931Z,67.63
2023-11-14T09:34:51.593Z,67.83
2023-11-14T09:35:54.326Z,68.07
2023-11-14T09:36:58.612Z,68.42
2023-11-14T09:38:02.220Z,68.31
2023-11-14T09:39:06.912Z,68.39
2023-11-14T09:40:23.265Z,68.07
2023-11-14T09:41:28.776Z,65.74
2023-11-14T09:42:31.989Z,65.01
2023-11-14T09:43:35.611Z,65.93
2023-11-14T09:44:39.242Z,67.31
2023-11-14T09:45:42.820Z,67.23
2023-11-14T09:46:50.476Z,66.41
2023-11-14T09:47:56.059Z,66.72
2023-11-14T09:48:59.011Z,67.69
2023-11-14T09:50:01.808Z,68.31
2023-11-14T09:51:07.641Z,64.39
2023-11-14T09:52:14.024Z,62.63
2023-11-14T09:53:22.075Z,64.24
2023-11-14T09:54:25.077Z,64.73
2023-11-14T09:55:27.925Z,65.05
2023-11-14T09:56:30.839Z,64.92
2023-11-14T09:57:37.761Z,65.13
2023-11-14T09:58:40.755Z,66.06
2023-11-14T09:59:44.328Z,66.92
2023-11-14T10:00:47.749Z,67.01
2023-11-14T10:01:50.514Z,66.79
2023-11-14T10:02:53.398Z,66.35
2023-11-14T10:03:57.352Z,66.81
2023-11-14T10:05:07.103Z,66.51
2023-11-14T10:06:16.164Z,66.68
2023-11-14T10:07:21.314Z,66.60
2023-11-14T10:08:25.566Z,66.66
2023-11-14T10:09:29.204Z,66.65
2023-11-14T10:10:33.194Z,66.19
2023-11-14T10:12:57.528Z,66.98
2023-11-14T10:14:05.527Z,66.65
2023-11-14T10:15:09.131Z,66.08
2023-11-14T10:16:18.281Z,66.13
2023-11-14T10:17:22.061Z,66.29
2023-11-14T10:18:31.365Z,65.73
2023-11-14T10:19:34.200Z,65.75
2023-11-14T10:21:46.419Z,65.96
2023-11-14T10:23:07.768Z,66.19
2023-11-14T10:24:15.292Z,65.96
2023-11-14T10:25:34.028Z,65.67
2023-11-14T10:26:57.631Z,65.05
2023-11-14T10:28:05.691Z,65.53
2023-11-14T10:29:08.699Z,65.42
2023-11-14T10:30:12.291Z,65.49
2023-11-14T10:31:17.226Z,65.79
2023-11-14T10:32:20.716Z,65.91
2023-11-14T10:33:30.962Z,65.69
2023-11-14T10:34:37.478Z,65.59
2023-11-14T10:35:42.319Z,65.00
2023-11-14T10:36:50.794Z,65.35
2023-11-14T10:37:53.534Z,65.49
2023-11-14T10:39:05.143Z,65.31
2023-11-14T10:40:09.318Z,65.45
2023-11-14T10:41:12.808Z,65.11
2023-11-14T10:42:15.743Z,65.03
2023-11-14T10:43:33.398Z,65.12
2023-11-14T10:44:36.202Z,65.29
2023-11-14T10:45:40.258Z,65.21
2023-11-14T10:46:54.216Z,65.52
2023-11-14T10:47:58.483Z,65.35
2023-11-14T10:49:04.484Z,64.53
2023-11-14T10:50:24.424Z,64.98
2023-11-14T10:51:28.136Z,65.01
2023-11-14T10:52:33.809Z,65.25
2023-11-14T10:53:36.766Z,64.53
2023-11-14T10:54:39.972Z,63.89
2023-11-14T10:55:46.561Z,63.45
2023-11-14T10:56:57.458Z,63.08
2023-11-14T10:58:02.015Z,60.82
2023-11-14T10:59:11.868Z,59.52
2023-11-14T11:00:14.899Z,58.55
2023-11-14T11:01:18.689Z,59.40
2023-11-14T11:02:23.839Z,59.70
2023-11-14T11:03:28.155Z,58.65
2023-11-14T11:04:31.276Z,57.54
2023-11-14T11:05:34.105Z,57.07
2023-11-14T11:06:37.689Z,56.92
2023-11-14T11:07:40.939Z,56.90
2023-11-14T11:08:43.697Z,55.84
2023-11-14T11:09:47.022Z,53.78
2023-11-14T11:10:52.873Z,53.59
2023-11-14T11:11:59.642Z,53.60
2023-11-14T11:13:09.540Z,53.77
2023-11-14T11:14:15.411Z,52.97
2023-11-14T11:15:18.381Z,51.52
2023-11-14T11:16:40.440Z,50.93
2023-11-14T11:17:45.613Z,50.99
2023-11-14T11:18:49.303Z,50.77
2023-11-14T11:19:55.730Z,50.87
2023-11-14T11:21:14.535Z,51.02
2023-11-14T11:22:18.936Z,50.60
2023-11-14T11:23:22.905Z,50.43
2023-11-14T11:24:36.899Z,49.35
2023-11-14T11:25:49.183Z,49.02
2023-11-14T11:27:13.568Z,49.77
2023-11-14T11:28:22.756Z,48.18
2023-11-14T11:29:45.956Z,46.80
2023-11-14T11:31:08.771Z,47.38
2023-11-14T11:32:31.619Z,47.40
2023-11-14T11:33:37.573Z,47.18
2023-11-14T11:34:41.559Z,46.41
2023-11-14T11:35:46.926Z,45.21
2023-11-14T11:36:49.674Z,44.73
2023-11-14T11:37:58.933Z,44.57
2023-11-14T11:39:07.376Z,44.40
2023-11-14T11:40:12.461Z,43.99
2023-11-14T11:41:19.078Z,44.35
2023-11-14T11:42:31.372Z,44.94
2023-11-14T11:43:37.873Z,44.60
2023-11-14T11:44:42.574Z,45.41
2023-11-14T11:45:51.008Z,45.43
2023-11-14T11:46:54.096Z,45.72
2023-11-14T11:48:00.915Z,45.09
2023-11-14T11:49:29.728Z,44.94
2023-11-14T11:50:36.189Z,45.57
2023-11-14T11:51:48.300Z,45.47
2023-11-14T11:53:08.361Z,45.00
2023-11-14T11:54:30.408Z,44.93
2023-11-14T11:55:38.420Z,45.30
2023-11-14T11:56:41.279Z,44.87
2023-11-14T11:57:48.090Z,45.40
2023-11-14T11:58:50.860Z,45.13
2023-11-14T11:59:54.306Z,44.65
2023-11-14T12:01:08.352Z,44.56
2023-11-14T12:02:16.334Z,44.46
2023-11-14T12:03:20.351Z,44.92
2023-11-14T12:04:24.170Z,44.88
2023-11-14T12:05:32.829Z,44.82
2023-11-14T12:06:36.864Z,45.40
2023-11-14T12:07:41.083Z,46.17
2023-11-14T12:08:43.844Z,47.14
2023-11-14T12:09:47.372Z,48.30
2023-11-14T12:10:51.290Z,48.49
2023-11-14T12:11:54.052Z,48.70
2023-11-14T12:12:58.564Z,49.59
2023-11-14T12:14:02.065Z,49.49
2023-11-14T12:15:06.845Z,49.89
2023-11-14T12:16:09.599Z,49.99
2023-11-14T12:17:12.576Z,50.15
2023-11-14T12:18:15.497Z,50.55
2023-11-14T12:19:18.217Z,50.83
2023-11-14T12:20:26.103Z,51.37
2023-11-14T12:21:30.233Z,51.59
2023-11-14T12:22:33.004Z,52.01
2023-11-14T12:23:35.810Z,52.48
2023-11-14T12:24:38.711Z,52.16
2023-11-14T12:25:42.098Z,52.60
2023-11-14T12:26:45.433Z,52.38
2023-11-14T12:28:00.927Z,52.45
2023-11-14T12:29:08.984Z,53.01
2023-11-14T12:30:14.526Z,53.01
2023-11-14T12:31:27.457Z,53.40
2023-11-14T12:32:30.499Z,53.62
2023-11-14T12:33:53.936Z,53.84
2023-11-14T12:35:00.439Z,54.62
2023-11-14T12:36:06.193Z,53.69
2023-11-14T12:37:16.062Z,53.71
2023-11-14T12:38:32.760Z,53.37
2023-11-14T12:39:35.582Z,53.81
2023-11-14T12:40:38.715Z,53.91
2023-11-14T12:41:49.002Z,54.25
2023-11-14T12:42:52.088Z,55.07
2023-11-14T12:44:02.647Z,54.57
2023-11-14T12:45:11.179Z,53.84
2023-11-14T12:46:22.347Z,54.33
2023-11-14T12:47:26.083Z,53.92
2023-11-14T12:48:28.933Z,54.09
2023-11-14T12:49:33.430Z,54.36
2023-11-14T12:50:36.478Z,54.34
2023-11-14T12:51:40.704Z,54.49
2023-11-14T12:52:44.024Z,54.33
2023-11-14T12:53:46.770Z,54.53
2023-11-14T12:54:49.479Z,54.58
2023-11-14T12:55:52.166Z,54.48
2023-11-14T12:56:57.192Z,54.91
2023-11-14T12:57:59.894Z,55.06
2023-11-14T12:59:06.776Z,55.00
2023-11-14T13:00:13.726Z,54.95
2023-11-14T13:01:16.703Z,54.74
2023-11-14T13:02:19.630Z,54.70
2023-11-14T13:03:22.447Z,54.75
2023-11-14T13:04:28.178Z,55.16
2023-11-14T13:05:31.014Z,55.02
2023-11-14T13:06:39.249Z,54.70
2023-11-14T13:07:42.423Z,54.20
2023-11-14T13:08:49.361Z,54.83
2023-11-14T13:09:52.529Z,54.86
2023-11-14T13:10:55.318Z,54.71
2023-11-14T13:11:58.118Z,54.82
2023-11-14T13:13:01.508Z,55.32
2023-11-14T13:14:05.216Z,54.87
2023-11-14T13:15:08.198Z,54.68
2023-11-14T13:16:11.047Z,54.10
2023-11-14T13:17:14.225Z,54.64
2023-11-14T13:18:17.003Z,54.76
2023-11-14T13:19:19.836Z,54.79
2023-11-14T13:20:22.609Z,55.28
2023-11-14T13:21:26.029Z,55.25
2023-11-14T13:22:33.771Z,55.31
2023-11-14T13:23:40.196Z,55.38
2023-11-14T13:24:42.964Z,55.36
2023-11-14T13:25:45.699Z,55.38
2023-11-14T13:26:48.971Z,55.06
2023-11-14T13:27:51.984Z,55.08
2023-11-14T13:28:55.465Z,54.61
2023-11-14T13:29:58.267Z,54.71
2023-11-14T13:31:01.683Z,54.79
2023-11-14T13:32:04.820Z,53.68
2023-11-14T13:33:07.887Z,54.16
2023-11-14T13:34:10.730Z,54.66
2023-11-14T13:35:14.838Z,55.12
2023-11-14T13:36:19.810Z,54.14
2023-11-14T13:37:22.661Z,54.33
2023-11-14T13:38:28.302Z,54.30
2023-11-14T13:39:31.515Z,54.00
2023-11-14T13:40:34.500Z,54.23
2023-11-14T13:42:43.964Z,53.90
2023-11-14T13:43:47.162Z,54.23
2023-11-14T13:44:50.481Z,54.11
2023-11-14T13:45:53.300Z,53.79
2023-11-14T13:46:56.960Z,53.93
2023-11-14T13:48:00.165Z,53.90
2023-11-14T13:49:04.101Z,53.42
2023-11-14T13:50:11.597Z,53.86
2023-11-14T13:51:14.424Z,53.98